Bierset, Belgium

5:50 AM CEST on August 30, 2014 (GMT +0200)
Embourg | Change Station
CLOSE
Current Station
Personal Weather Station
Location: Chaudfontaine, RéGION WALLONNE
Elevation: 577 ft
Nearby Weather Stations

Elev 577 ft 50.59 °N, 5.62 °E | Updated 40 seconds ago

Partly Cloudy
Partly Cloudy
58.6 °F
Feels Like 58.6 °F
N
0.7
Wind Variable Wind from South
Gusts 3.2 mph

Today
High -- | Low -- °F
--% Chance of Precip.
Yesterday
High -- | Low -- °F
Precip. -- in
6:48 AM 8:27 PM
Waxing Crescent, 18% visible
Pressure 30.01 in
Visibility 6.2 miles
Clouds Few 4100 ft
Dew Point 57 °F
Humidity 94%
Rainfall -999.00 in
Snow Depth Not available.
UV 0 out of 12
Pollen Not available.
Air Quality Not available.
Flu Activity Not available.
METAR EHBK 300325Z AUTO 22012KT 190V260 9999 FEW041 16/12 Q1016

More Conditions Fewer Conditions

Pressure 30.01 in
Visibility 6.2 miles
Clouds Few 4100 ft
Dew Point 57 °F
Humidity 94%
Rainfall -999.00 in
Snow Depth Not available.
UV 0 out of 12
Pollen Not available.
Air Quality Not available.
Flu Activity Not available.
METAR EHBK 300325Z AUTO 22012KT 190V260 9999 FEW041 16/12 Q1016

More Conditions Fewer Conditions

10-Day Weather Forecast

Almanac

Astronomy

Aug. 30, 2014 Rise Set
Actual Time 6:48 AM CEST 8:27 PM CEST
Civil Twilight 6:14 AM CEST 9:02 PM CEST
Nautical Twilight 5:31 AM CEST 9:44 PM CEST
Astronomical Twilight 4:45 AM CEST 10:30 PM CEST
Moon 11:53 AM CEST 10:17 PM CEST
Length of Visible Light 14h 47m
Length of Day
13h 39m
Tomorrow will be 3m 41s shorter.
Waxing Crescent, 18% of the Moon is Illuminated
Aug 29
Waxing Crescent
Sep 2
First Quarter
Sep 8
Full
Sep 15
Last Quarter
Sep 24
New

Yesterday's Extremes

Country Highs Country Lows

Community

WunderPhotos

Upload Photos

1,748,437 photos uploaded!

Nearby

Snow Depth

Not available.

Earthquake Activity

City Distance Mag. Time & Date
No recent earthquake activity has been reported nearby.
Minimum magnitude displayed is 2.5.

Coastal Water Temperatures

Place Temperature
No Stations Reporting

Nearby Weather Stations